createdAt,value
2022-08-10T00:01:52.661Z,9.43
2022-08-10T00:04:22.129Z,11.23
2022-08-10T00:09:19.453Z,8.48
2022-08-10T00:11:47.008Z,7.23
2022-08-10T00:14:14.379Z,6.68
2022-08-10T00:16:41.668Z,6.53
2022-08-10T00:19:09.803Z,6.15
2022-08-10T00:21:37.400Z,6.18
2022-08-10T00:24:05.229Z,6.05
2022-08-10T00:27:52.277Z,5.57
2022-08-10T00:29:21.505Z,6.78
2022-08-10T00:31:57.851Z,5.78
2022-08-10T00:34:27.887Z,6.97
2022-08-10T00:36:55.644Z,7.18
2022-08-10T00:39:23.115Z,7.00
2022-08-10T00:42:01.781Z,7.32
2022-08-10T00:44:36.611Z,6.90
2022-08-10T00:47:04.252Z,7.30
2022-08-10T00:49:31.777Z,7.15
2022-08-10T00:51:59.220Z,7.30
2022-08-10T00:54:27.341Z,6.50
2022-08-10T00:57:17.720Z,7.43
2022-08-10T00:59:57.720Z,8.07
2022-08-10T01:02:29.795Z,7.18
2022-08-10T01:05:01.564Z,7.38
2022-08-10T01:07:55.729Z,7.40
2022-08-10T01:10:30.435Z,7.50
2022-08-10T01:13:06.776Z,7.45
2022-08-10T01:15:43.344Z,7.35
2022-08-10T01:18:15.180Z,8.95
2022-08-10T01:20:58.002Z,9.23
2022-08-10T01:23:51.469Z,8.93
2022-08-10T01:26:40.897Z,6.70
2022-08-10T01:29:22.182Z,10.05
2022-08-10T01:31:57.143Z,10.68
2022-08-10T01:34:29.353Z,7.80
2022-08-10T01:37:03.412Z,9.88
2022-08-10T01:39:36.946Z,7.70
2022-08-10T01:42:06.571Z,10.32
2022-08-10T01:44:38.289Z,8.98
2022-08-10T01:47:30.132Z,10.30
2022-08-10T01:50:03.149Z,10.93
2022-08-10T01:52:34.541Z,11.60
2022-08-10T01:55:01.923Z,10.82
2022-08-10T01:57:33.375Z,11.90
2022-08-10T02:00:03.341Z,14.32
2022-08-10T02:02:38.185Z,12.63
2022-08-10T02:05:08.024Z,13.10
2022-08-10T02:07:37.958Z,11.77
2022-08-10T02:10:10.905Z,11.52
2022-08-10T02:12:41.289Z,11.10
2022-08-10T02:15:13.656Z,12.82
2022-08-10T02:17:59.498Z,13.05
2022-08-10T02:20:36.741Z,13.63
2022-08-10T02:23:08.910Z,15.15
2022-08-10T02:25:40.829Z,12.98
2022-08-10T02:28:27.145Z,13.70
2022-08-10T02:31:02.985Z,13.98
2022-08-10T02:33:38.761Z,13.18
2022-08-10T02:36:27.962Z,9.10
2022-08-10T02:39:00.767Z,7.93
2022-08-10T02:45:01.817Z,11.57
2022-08-10T02:45:20.984Z,10.82
2022-08-10T02:47:22.628Z,9.77
2022-08-10T02:49:57.667Z,16.83
2022-08-10T02:52:35.391Z,25.73
2022-08-10T02:55:17.529Z,38.65
2022-08-10T02:58:12.534Z,25.77
2022-08-10T03:00:42.729Z,23.02
2022-08-10T03:03:15.878Z,18.25
2022-08-10T03:05:47.853Z,13.43
2022-08-10T03:08:19.424Z,13.25
2022-08-10T03:10:48.977Z,10.18
2022-08-10T03:15:46.368Z,8.73
2022-08-10T03:18:15.043Z,9.32
2022-08-10T03:20:45.351Z,8.88
2022-08-10T03:23:16.830Z,7.80
2022-08-10T03:25:54.425Z,8.45
2022-08-10T03:28:23.338Z,9.13
2022-08-10T03:30:51.315Z,7.88
2022-08-10T03:33:20.598Z,9.18
2022-08-10T03:36:41.525Z,9.95
2022-08-10T03:38:36.944Z,9.93
2022-08-10T03:41:06.549Z,7.55
2022-08-10T03:43:34.495Z,9.77
2022-08-10T03:46:06.467Z,7.47
2022-08-10T03:48:48.922Z,8.55
2022-08-10T03:51:19.683Z,6.82
2022-08-10T03:54:03.155Z,6.75
2022-08-10T03:56:36.376Z,6.90
2022-08-10T03:59:04.360Z,7.65
2022-08-10T04:02:46.580Z,7.57
2022-08-10T04:04:24.317Z,7.07
2022-08-10T04:06:55.800Z,8.48
2022-08-10T04:09:42.709Z,8.35
2022-08-10T04:12:12.734Z,8.27
2022-08-10T04:14:51.589Z,7.82
2022-08-10T04:18:04.946Z,8.20
2022-08-10T04:20:16.661Z,8.55
2022-08-10T04:22:47.210Z,10.18
2022-08-10T04:25:16.508Z,8.40
2022-08-10T04:27:44.839Z,7.95
2022-08-10T04:30:13.066Z,8.60
2022-08-10T04:32:42.321Z,7.68
2022-08-10T04:35:11.163Z,7.88
2022-08-10T04:37:47.237Z,8.20
2022-08-10T04:40:28.383Z,7.38
2022-08-10T04:43:01.424Z,7.07
2022-08-10T04:45:48.715Z,7.30
2022-08-10T04:48:41.634Z,6.85
2022-08-10T04:51:11.261Z,6.80
2022-08-10T04:54:05.722Z,7.00
2022-08-10T04:56:38.066Z,5.97
2022-08-10T04:59:07.011Z,6.65
2022-08-10T05:02:22.399Z,5.68
2022-08-10T05:04:35.284Z,5.45
2022-08-10T05:07:15.995Z,5.22
2022-08-10T05:10:02.275Z,4.97
2022-08-10T05:12:36.347Z,5.82
2022-08-10T05:15:06.727Z,5.30
2022-08-10T05:20:01.617Z,5.22
2022-08-10T05:22:33.605Z,4.85
2022-08-10T05:25:00.871Z,5.40
2022-08-10T05:27:28.364Z,5.30
2022-08-10T05:30:02.147Z,5.38
2022-08-10T05:32:32.175Z,4.72
2022-08-10T05:34:59.822Z,5.22
2022-08-10T05:38:10.560Z,5.05
2022-08-10T05:40:17.240Z,5.28
2022-08-10T05:42:44.597Z,4.85
2022-08-10T05:45:22.075Z,5.75
2022-08-10T05:48:54.022Z,4.93
2022-08-10T05:50:37.458Z,4.53
2022-08-10T05:54:01.894Z,4.47
2022-08-10T05:55:52.939Z,4.50
2022-08-10T05:58:20.349Z,5.55
2022-08-10T06:00:56.496Z,4.70
2022-08-10T06:03:27.727Z,4.40
2022-08-10T06:05:58.708Z,4.05
2022-08-10T06:08:31.678Z,3.55
2022-08-10T06:12:23.984Z,3.15
2022-08-10T06:14:30.514Z,3.60
2022-08-10T06:17:01.480Z,3.05
2022-08-10T06:19:31.063Z,4.05
2022-08-10T06:22:01.715Z,3.30
2022-08-10T06:24:31.313Z,3.28
2022-08-10T06:29:30.430Z,3.10
2022-08-10T06:32:01.238Z,3.28
2022-08-10T06:34:32.965Z,3.22
2022-08-10T06:37:03.212Z,3.83
2022-08-10T06:39:35.630Z,3.95
2022-08-10T06:42:14.722Z,3.45
2022-08-10T06:44:53.285Z,3.80
2022-08-10T06:47:30.552Z,3.60
2022-08-10T06:50:04.947Z,3.30
2022-08-10T06:52:37.615Z,3.17
2022-08-10T06:55:08.937Z,2.72
2022-08-10T06:57:39.015Z,2.58
2022-08-10T07:00:09.674Z,2.83
2022-08-10T07:02:45.295Z,2.20
2022-08-10T07:05:17.637Z,2.13
2022-08-10T07:07:47.317Z,2.33
2022-08-10T07:10:20.029Z,2.42
2022-08-10T07:12:49.107Z,2.80
2022-08-10T07:15:18.382Z,1.65
2022-08-10T07:17:47.881Z,2.20
2022-08-10T07:20:18.825Z,2.00
2022-08-10T07:23:53.842Z,2.42
2022-08-10T07:25:39.605Z,4.13
2022-08-10T07:28:08.550Z,4.68
2022-08-10T07:30:38.501Z,3.58
2022-08-10T07:33:08.462Z,3.10
2022-08-10T07:35:42.548Z,2.92
2022-08-10T07:38:18.785Z,3.25
2022-08-10T07:40:47.740Z,2.70
2022-08-10T07:43:17.414Z,2.13
2022-08-10T07:45:46.896Z,2.20
2022-08-10T07:48:19.045Z,1.73
2022-08-10T07:50:48.173Z,1.52
2022-08-10T07:53:21.738Z,1.20
2022-08-10T07:56:01.787Z,1.40
2022-08-10T07:58:46.332Z,1.80
2022-08-10T08:01:23.897Z,1.95
2022-08-10T08:04:05.531Z,1.98
2022-08-10T08:06:41.593Z,1.63
2022-08-10T08:09:11.074Z,1.33
2022-08-10T08:11:41.377Z,1.38
2022-08-10T08:14:10.199Z,1.05
2022-08-10T08:16:41.857Z,1.50
2022-08-10T08:19:35.532Z,1.25
2022-08-10T08:24:07.233Z,1.30
2022-08-10T08:24:52.626Z,1.40
2022-08-10T08:29:49.852Z,1.40
2022-08-10T08:34:49.467Z,1.50
2022-08-10T08:38:33.281Z,1.33
2022-08-10T08:40:10.921Z,1.63
2022-08-10T08:43:09.437Z,1.52
2022-08-10T08:46:00.980Z,1.25
2022-08-10T08:49:01.721Z,1.60
2022-08-10T08:52:06.332Z,1.50
2022-08-10T08:54:38.132Z,2.05
2022-08-10T08:57:11.386Z,2.33
2022-08-10T08:59:53.536Z,1.83
2022-08-10T09:02:54.769Z,1.70
2022-08-10T09:05:31.991Z,1.60
2022-08-10T09:08:49.722Z,1.70
2022-08-10T09:11:30.858Z,1.55
2022-08-10T09:14:06.438Z,1.60
2022-08-10T09:16:43.391Z,1.83
2022-08-10T09:19:19.766Z,2.00
2022-08-10T09:22:17.127Z,1.80
2022-08-10T09:24:56.852Z,2.05
2022-08-10T09:27:35.917Z,1.50
2022-08-10T09:30:06.427Z,1.60
2022-08-10T09:36:14.250Z,1.40
2022-08-10T09:36:20.577Z,1.73
2022-08-10T09:38:33.851Z,1.80
2022-08-10T09:41:16.246Z,1.70
2022-08-10T09:43:52.521Z,1.73
2022-08-10T09:46:38.886Z,1.70
2022-08-10T09:49:52.886Z,2.38
2022-08-10T09:52:22.263Z,1.50
2022-08-10T09:55:04.803Z,1.67
2022-08-10T09:57:44.467Z,1.88
2022-08-10T10:00:19.197Z,1.60
2022-08-10T10:02:57.922Z,1.83
2022-08-10T10:05:51.845Z,1.48
2022-08-10T10:08:32.539Z,1.60
2022-08-10T10:11:15.567Z,1.33
2022-08-10T10:14:02.596Z,1.35
2022-08-10T10:16:52.049Z,1.50
2022-08-10T10:19:39.948Z,1.73
2022-08-10T10:22:44.626Z,1.60
2022-08-10T10:25:21.960Z,1.42
2022-08-10T10:28:03.609Z,1.50
2022-08-10T10:30:46.041Z,1.45
2022-08-10T10:33:17.464Z,1.23
2022-08-10T10:35:55.085Z,1.60
2022-08-10T10:38:27.007Z,1.55
2022-08-10T10:41:03.234Z,1.40
2022-08-10T10:43:45.025Z,1.20
2022-08-10T10:46:26.056Z,1.20
2022-08-10T10:49:03.707Z,1.60
2022-08-10T10:51:38.658Z,1.42
2022-08-10T10:54:10.983Z,1.27
2022-08-10T10:56:52.061Z,1.40
2022-08-10T10:59:56.660Z,1.20
2022-08-10T11:02:33.765Z,1.17
2022-08-10T11:05:13.284Z,1.33
2022-08-10T11:07:53.209Z,1.38
2022-08-10T11:10:32.926Z,1.42
2022-08-10T11:14:24.598Z,2.10
2022-08-10T11:16:13.780Z,1.40
2022-08-10T11:18:55.004Z,1.25
2022-08-10T11:21:31.743Z,1.00
2022-08-10T11:24:48.420Z,1.50
2022-08-10T11:26:58.800Z,2.10
2022-08-10T11:29:34.848Z,1.40
2022-08-10T11:32:07.230Z,1.23
2022-08-10T11:35:11.361Z,1.33
2022-08-10T11:38:28.474Z,1.23
2022-08-10T11:40:39.291Z,1.25
2022-08-10T11:43:13.426Z,1.35
2022-08-10T11:45:51.981Z,1.20
2022-08-10T11:48:53.988Z,1.40
2022-08-10T11:51:32.461Z,1.00
2022-08-10T11:54:05.548Z,1.33
2022-08-10T11:56:44.678Z,1.17
2022-08-10T11:59:32.369Z,1.10
2022-08-10T12:02:00.532Z,1.10
2022-08-10T12:04:29.170Z,1.03
2022-08-10T12:06:59.101Z,1.15
2022-08-10T12:10:09.879Z,1.17
2022-08-10T12:12:16.999Z,0.90
2022-08-10T12:17:20.362Z,1.33
2022-08-10T12:19:59.432Z,1.73
2022-08-10T12:22:38.822Z,1.65
2022-08-10T12:25:11.551Z,1.48
2022-08-10T12:28:07.499Z,1.40
2022-08-10T12:30:38.554Z,1.10
2022-08-10T12:33:11.800Z,1.52
2022-08-10T12:36:14.926Z,1.60
2022-08-10T12:38:41.062Z,1.60
2022-08-10T12:41:17.691Z,1.65
2022-08-10T12:44:12.059Z,1.60
2022-08-10T12:46:49.331Z,2.33
2022-08-10T12:49:21.580Z,1.95
2022-08-10T12:51:59.166Z,2.42
2022-08-10T12:54:34.212Z,1.95
2022-08-10T12:57:05.756Z,1.77
2022-08-10T12:59:43.512Z,1.70
2022-08-10T13:02:18.824Z,1.77
2022-08-10T13:04:49.617Z,1.92
2022-08-10T13:08:24.231Z,1.45
2022-08-10T13:10:16.319Z,1.40
2022-08-10T13:12:47.024Z,2.20
2022-08-10T13:15:47.978Z,1.58
2022-08-10T13:18:18.237Z,1.35
2022-08-10T13:20:50.841Z,1.58
2022-08-10T13:23:21.760Z,1.38
2022-08-10T13:25:52.043Z,1.52
2022-08-10T13:28:37.716Z,1.90
2022-08-10T13:31:16.281Z,1.45
2022-08-10T13:34:38.863Z,2.63
2022-08-10T13:36:39.042Z,2.72
2022-08-10T13:39:08.519Z,2.40
2022-08-10T13:41:40.443Z,2.17
2022-08-10T13:44:09.751Z,1.95
2022-08-10T13:49:09.854Z,1.75
2022-08-10T13:51:56.622Z,1.77
2022-08-10T13:54:28.649Z,4.38
2022-08-10T13:56:59.215Z,2.75
2022-08-10T14:00:33.634Z,3.22
2022-08-10T14:02:24.100Z,3.47
2022-08-10T14:04:54.520Z,2.33
2022-08-10T14:07:23.122Z,2.60
2022-08-10T14:09:52.188Z,2.47
2022-08-10T14:15:00.768Z,1.50
2022-08-10T14:17:28.806Z,1.92
2022-08-10T14:19:58.580Z,1.43
2022-08-10T14:22:33.948Z,1.42
2022-08-10T14:25:07.456Z,1.33
2022-08-10T14:28:02.409Z,1.63
2022-08-10T14:30:30.795Z,1.70
2022-08-10T14:33:04.270Z,2.17
2022-08-10T14:36:19.627Z,1.67
2022-08-10T14:38:29.126Z,1.92
2022-08-10T14:40:58.922Z,1.48
2022-08-10T14:43:33.129Z,1.50
2022-08-10T14:46:03.814Z,1.40
2022-08-10T14:48:39.733Z,1.63
2022-08-10T14:51:09.342Z,1.42
2022-08-10T14:53:38.433Z,1.48
2022-08-10T14:56:09.413Z,1.33
2022-08-10T14:58:59.082Z,1.08
2022-08-10T15:02:00.158Z,1.10
2022-08-10T15:04:24.739Z,1.02
2022-08-10T15:06:55.920Z,1.17
2022-08-10T15:09:25.513Z,1.02
2022-08-10T15:12:15.068Z,0.70
2022-08-10T15:14:46.061Z,0.80
2022-08-10T15:17:23.751Z,0.77
2022-08-10T15:20:04.489Z,0.82
2022-08-10T15:22:44.171Z,0.90
2022-08-10T15:25:19.623Z,1.10
2022-08-10T15:27:57.362Z,1.25
2022-08-10T15:30:31.098Z,1.60
2022-08-10T15:33:21.360Z,1.23
2022-08-10T15:36:27.772Z,1.70
2022-08-10T15:38:59.798Z,2.05
2022-08-10T15:41:57.948Z,1.50
2022-08-10T15:44:37.520Z,1.30
2022-08-10T15:47:11.055Z,1.55
2022-08-10T15:49:52.052Z,1.17
2022-08-10T15:52:39.235Z,1.27
2022-08-10T15:55:43.190Z,1.35
2022-08-10T15:58:09.407Z,1.30
2022-08-10T16:00:44.642Z,1.40
2022-08-10T16:03:22.456Z,1.33
2022-08-10T16:06:01.895Z,1.38
2022-08-10T16:08:56.667Z,2.00
2022-08-10T16:11:38.074Z,1.63
2022-08-10T16:14:10.536Z,1.40
2022-08-10T16:16:40.193Z,1.35
2022-08-10T16:19:22.492Z,1.70
2022-08-10T16:21:57.200Z,1.02
2022-08-10T16:24:25.815Z,1.55
2022-08-10T16:26:54.675Z,1.30
2022-08-10T16:29:24.927Z,1.20
2022-08-10T16:31:54.580Z,1.27
2022-08-10T16:34:26.027Z,1.10
2022-08-10T16:36:56.478Z,1.20
2022-08-10T16:39:58.234Z,1.25
2022-08-10T16:42:18.958Z,1.13
2022-08-10T16:44:52.892Z,2.08
2022-08-10T16:47:27.301Z,1.60
2022-08-10T16:50:01.507Z,2.03
2022-08-10T16:52:34.323Z,2.45
2022-08-10T16:55:19.487Z,1.90
2022-08-10T16:57:56.863Z,1.40
2022-08-10T17:00:25.819Z,1.45
2022-08-10T17:02:57.268Z,1.73
2022-08-10T17:06:09.492Z,1.17
2022-08-10T17:08:20.897Z,1.60
2022-08-10T17:10:51.770Z,1.20
2022-08-10T17:13:24.058Z,1.10
2022-08-10T17:15:56.629Z,1.27
2022-08-10T17:18:28.362Z,1.40
2022-08-10T17:20:59.696Z,1.70
2022-08-10T17:23:31.629Z,1.52
2022-08-10T17:26:03.090Z,1.27
2022-08-10T17:28:40.038Z,1.48
2022-08-10T17:31:24.169Z,1.40
2022-08-10T17:34:06.700Z,1.48
2022-08-10T17:36:37.135Z,1.40
2022-08-10T17:39:08.649Z,1.58
2022-08-10T17:41:37.908Z,1.70
2022-08-10T17:44:06.666Z,3.73
2022-08-10T17:46:38.754Z,5.15
2022-08-10T17:49:09.151Z,3.97
2022-08-10T17:51:40.543Z,3.17
2022-08-10T17:54:15.187Z,2.50
2022-08-10T17:56:42.934Z,2.10
2022-08-10T17:59:17.397Z,2.60
2022-08-10T18:02:01.579Z,1.98
2022-08-10T18:04:41.988Z,1.45
2022-08-10T18:07:12.825Z,1.50
2022-08-10T18:09:45.002Z,2.40
2022-08-10T18:12:18.406Z,1.40
2022-08-10T18:14:50.235Z,1.73
2022-08-10T18:17:21.836Z,1.50
2022-08-10T18:19:53.729Z,1.73
2022-08-10T18:22:25.054Z,1.58
2022-08-10T18:24:54.230Z,2.00
2022-08-10T18:27:22.883Z,1.83
2022-08-10T18:30:11.949Z,2.07
2022-08-10T18:32:39.913Z,1.83
2022-08-10T18:35:08.348Z,2.28
2022-08-10T18:37:38.739Z,3.08
2022-08-10T18:40:08.008Z,36.88
2022-08-10T18:42:41.101Z,7.38
2022-08-10T18:45:12.301Z,4.15
2022-08-10T18:47:58.429Z,4.60
2022-08-10T18:50:31.060Z,3.65
2022-08-10T18:53:02.939Z,3.25
2022-08-10T18:55:35.538Z,4.63
2022-08-10T18:58:49.291Z,3.05
2022-08-10T19:01:31.127Z,12.35
2022-08-10T19:04:13.850Z,7.97
2022-08-10T19:07:08.496Z,7.70
2022-08-10T19:09:54.533Z,9.52
2022-08-10T19:12:39.495Z,11.93
2022-08-10T19:15:25.242Z,10.43
2022-08-10T19:18:11.429Z,17.38
2022-08-10T19:20:47.386Z,10.52
2022-08-10T19:23:27.271Z,7.43
2022-08-10T19:26:40.726Z,5.90
2022-08-10T19:29:03.198Z,5.50
2022-08-10T19:31:41.887Z,5.10
2022-08-10T19:34:33.682Z,4.00
2022-08-10T19:37:08.943Z,3.97
2022-08-10T19:39:50.630Z,3.55
2022-08-10T19:42:31.569Z,2.88
2022-08-10T19:45:06.594Z,4.07
2022-08-10T19:47:38.944Z,6.55
2022-08-10T19:50:11.199Z,11.40
2022-08-10T19:52:46.286Z,25.30
2022-08-10T19:55:21.432Z,7.78
2022-08-10T19:57:57.217Z,6.15
2022-08-10T20:00:29.589Z,7.32
2022-08-10T20:03:11.815Z,5.38
2022-08-10T20:06:18.054Z,6.00
2022-08-10T20:08:47.533Z,6.03
2022-08-10T20:11:44.346Z,5.50
2022-08-10T20:14:22.294Z,5.32
2022-08-10T20:16:53.459Z,3.88
2022-08-10T20:19:52.929Z,11.07
2022-08-10T20:22:29.131Z,5.60
2022-08-10T20:25:03.949Z,3.90
2022-08-10T20:28:00.709Z,5.10
2022-08-10T20:30:30.817Z,3.83
2022-08-10T20:33:07.875Z,3.38
2022-08-10T20:35:47.212Z,3.50
2022-08-10T20:38:22.414Z,4.85
2022-08-10T20:41:03.505Z,3.90
2022-08-10T20:43:44.071Z,4.45
2022-08-10T20:46:22.905Z,3.92
2022-08-10T20:48:58.585Z,4.38
2022-08-10T20:51:58.341Z,6.55
2022-08-10T20:54:21.928Z,4.35
2022-08-10T20:57:55.847Z,5.15
2022-08-10T21:00:07.882Z,5.38
2022-08-10T21:02:54.477Z,6.18
2022-08-10T21:05:30.324Z,6.50
2022-08-10T21:08:13.469Z,9.45
2022-08-10T21:11:02.462Z,11.70
2022-08-10T21:13:57.360Z,6.85
2022-08-10T21:16:49.509Z,5.93
2022-08-10T21:19:54.008Z,6.40
2022-08-10T21:22:29.384Z,6.93
2022-08-10T21:25:01.046Z,7.10
2022-08-10T21:27:59.291Z,6.55
2022-08-10T21:30:45.264Z,6.30
2022-08-10T21:33:42.932Z,7.13
2022-08-10T21:36:18.483Z,6.82
2022-08-10T21:38:51.696Z,8.05
2022-08-10T21:41:58.372Z,7.63
2022-08-10T21:45:08.033Z,7.65
2022-08-10T21:48:16.819Z,6.75
2022-08-10T21:51:16.420Z,4.38
2022-08-10T21:54:25.958Z,3.33
2022-08-10T21:57:20.651Z,3.55
2022-08-10T22:00:11.976Z,3.75
2022-08-10T22:02:59.470Z,3.70
2022-08-10T22:05:48.230Z,4.03
2022-08-10T22:08:37.622Z,4.85
2022-08-10T22:11:29.414Z,4.95
2022-08-10T22:14:25.746Z,4.45
2022-08-10T22:17:59.771Z,4.40
2022-08-10T22:23:41.831Z,7.85
2022-08-10T22:26:40.188Z,5.10
2022-08-10T22:29:42.306Z,6.28
2022-08-10T22:32:43.295Z,4.82
2022-08-10T22:35:56.034Z,6.30
2022-08-10T22:39:01.336Z,6.03
2022-08-10T22:42:05.089Z,5.68
2022-08-10T22:44:55.077Z,6.57
2022-08-10T22:47:43.322Z,12.20
2022-08-10T22:50:12.999Z,9.77
2022-08-10T22:58:38.373Z,6.90
2022-08-10T23:01:13.356Z,6.00
2022-08-10T23:03:51.438Z,6.40
2022-08-10T23:06:21.637Z,6.53
2022-08-10T23:08:53.125Z,6.65
2022-08-10T23:11:25.722Z,6.55
2022-08-10T23:14:01.404Z,6.25
2022-08-10T23:16:50.255Z,6.18
2022-08-10T23:19:22.650Z,5.85
2022-08-10T23:22:04.303Z,8.13
2022-08-10T23:24:37.715Z,6.00
2022-08-10T23:27:12.102Z,6.43
2022-08-10T23:30:09.533Z,6.05
2022-08-10T23:32:36.202Z,6.93
2022-08-10T23:36:32.056Z,6.88
2022-08-10T23:37:59.807Z,6.97
2022-08-10T23:40:27.582Z,7.05
2022-08-10T23:42:56.724Z,6.88
2022-08-10T23:45:27.945Z,8.45
2022-08-10T23:47:59.206Z,8.20
2022-08-10T23:50:28.351Z,8.80
2022-08-10T23:52:58.999Z,8.57
2022-08-10T23:55:29.584Z,5.97
2022-08-10T23:58:05.684Z,6.32
